sensor_id;sensor_type;location;lat;lon;timestamp;P1;durP1;ratioP1;P2;durP2;ratioP2
4452;SDS011;2239;48.152;11.584;2022-10-31T00:00:20;8.00;;;2.47;;
4452;SDS011;2239;48.152;11.584;2022-10-31T00:02:46;6.90;;;2.63;;
4452;SDS011;2239;48.152;11.584;2022-10-31T00:05:11;5.53;;;2.50;;
4452;SDS011;2239;48.152;11.584;2022-10-31T00:07:37;6.03;;;2.67;;
4452;SDS011;2239;48.152;11.584;2022-10-31T00:10:03;3.97;;;1.97;;
4452;SDS011;2239;48.152;11.584;2022-10-31T00:12:29;4.77;;;2.13;;
4452;SDS011;2239;48.152;11.584;2022-10-31T00:14:54;3.57;;;2.50;;
4452;SDS011;2239;48.152;11.584;2022-10-31T00:17:20;5.90;;;1.87;;
4452;SDS011;2239;48.152;11.584;2022-10-31T00:19:46;5.40;;;2.50;;
4452;SDS011;2239;48.152;11.584;2022-10-31T00:22:11;2.93;;;1.80;;
4452;SDS011;2239;48.152;11.584;2022-10-31T00:24:37;2.97;;;1.50;;
4452;SDS011;2239;48.152;11.584;2022-10-31T00:27:02;6.47;;;1.97;;
4452;SDS011;2239;48.152;11.584;2022-10-31T00:29:28;4.27;;;2.57;;
4452;SDS011;2239;48.152;11.584;2022-10-31T00:31:54;4.40;;;1.67;;
4452;SDS011;2239;48.152;11.584;2022-10-31T00:34:19;4.10;;;1.90;;
4452;SDS011;2239;48.152;11.584;2022-10-31T00:36:45;4.47;;;2.53;;
4452;SDS011;2239;48.152;11.584;2022-10-31T00:39:10;5.17;;;2.20;;
4452;SDS011;2239;48.152;11.584;2022-10-31T00:41:36;4.80;;;1.77;;
4452;SDS011;2239;48.152;11.584;2022-10-31T00:44:01;3.87;;;2.10;;
4452;SDS011;2239;48.152;11.584;2022-10-31T00:46:27;1.80;;;1.43;;
4452;SDS011;2239;48.152;11.584;2022-10-31T00:48:52;3.47;;;1.77;;
4452;SDS011;2239;48.152;11.584;2022-10-31T00:51:18;4.50;;;2.10;;
4452;SDS011;2239;48.152;11.584;2022-10-31T00:53:44;2.93;;;1.50;;
4452;SDS011;2239;48.152;11.584;2022-10-31T00:56:09;5.40;;;2.50;;
4452;SDS011;2239;48.152;11.584;2022-10-31T00:58:35;5.83;;;2.17;;
4452;SDS011;2239;48.152;11.584;2022-10-31T01:01:00;4.60;;;2.63;;
4452;SDS011;2239;48.152;11.584;2022-10-31T01:03:27;3.67;;;1.93;;
4452;SDS011;2239;48.152;11.584;2022-10-31T01:06:00;3.83;;;1.97;;
4452;SDS011;2239;48.152;11.584;2022-10-31T01:08:28;4.07;;;1.83;;
4452;SDS011;2239;48.152;11.584;2022-10-31T01:11:00;2.63;;;1.40;;
4452;SDS011;2239;48.152;11.584;2022-10-31T01:13:26;5.50;;;1.77;;
4452;SDS011;2239;48.152;11.584;2022-10-31T01:15:55;1.43;;;1.30;;
4452;SDS011;2239;48.152;11.584;2022-10-31T01:18:22;4.13;;;1.77;;
4452;SDS011;2239;48.152;11.584;2022-10-31T01:20:56;3.73;;;2.43;;
4452;SDS011;2239;48.152;11.584;2022-10-31T01:23:22;3.80;;;2.00;;
4452;SDS011;2239;48.152;11.584;2022-10-31T01:25:48;2.90;;;1.57;;
4452;SDS011;2239;48.152;11.584;2022-10-31T01:28:14;4.57;;;1.80;;
4452;SDS011;2239;48.152;11.584;2022-10-31T01:30:39;4.33;;;1.80;;
4452;SDS011;2239;48.152;11.584;2022-10-31T01:33:05;5.00;;;1.60;;
4452;SDS011;2239;48.152;11.584;2022-10-31T01:35:30;1.83;;;1.40;;
4452;SDS011;2239;48.152;11.584;2022-10-31T01:37:56;3.60;;;2.00;;
4452;SDS011;2239;48.152;11.584;2022-10-31T01:40:21;2.93;;;1.50;;
4452;SDS011;2239;48.152;11.584;2022-10-31T01:42:53;4.93;;;1.53;;
4452;SDS011;2239;48.152;11.584;2022-10-31T01:45:19;4.33;;;1.80;;
4452;SDS011;2239;48.152;11.584;2022-10-31T01:47:45;3.23;;;1.70;;
4452;SDS011;2239;48.152;11.584;2022-10-31T01:50:14;2.53;;;1.90;;
4452;SDS011;2239;48.152;11.584;2022-10-31T01:52:47;3.93;;;1.77;;
4452;SDS011;2239;48.152;11.584;2022-10-31T01:55:20;2.40;;;1.63;;
4452;SDS011;2239;48.152;11.584;2022-10-31T01:57:50;2.57;;;1.50;;
4452;SDS011;2239;48.152;11.584;2022-10-31T02:00:19;2.30;;;1.77;;
4452;SDS011;2239;48.152;11.584;2022-10-31T02:02:45;2.40;;;2.00;;
4452;SDS011;2239;48.152;11.584;2022-10-31T02:05:15;2.47;;;1.67;;
4452;SDS011;2239;48.152;11.584;2022-10-31T02:10:43;5.50;;;2.13;;
4452;SDS011;2239;48.152;11.584;2022-10-31T02:13:09;3.13;;;1.97;;
4452;SDS011;2239;48.152;11.584;2022-10-31T02:15:37;3.40;;;1.73;;
4452;SDS011;2239;48.152;11.584;2022-10-31T02:18:04;3.43;;;1.73;;
4452;SDS011;2239;48.152;11.584;2022-10-31T02:20:42;4.90;;;2.17;;
4452;SDS011;2239;48.152;11.584;2022-10-31T02:26:26;4.27;;;1.70;;
4452;SDS011;2239;48.152;11.584;2022-10-31T02:32:27;2.40;;;1.17;;
4452;SDS011;2239;48.152;11.584;2022-10-31T02:43:47;4.47;;;1.67;;
4452;SDS011;2239;48.152;11.584;2022-10-31T02:46:39;3.87;;;1.43;;
4452;SDS011;2239;48.152;11.584;2022-10-31T02:49:56;4.13;;;1.60;;
4452;SDS011;2239;48.152;11.584;2022-10-31T02:51:59;4.13;;;1.73;;
4452;SDS011;2239;48.152;11.584;2022-10-31T02:54:25;1.70;;;1.30;;
4452;SDS011;2239;48.152;11.584;2022-10-31T02:56:54;4.57;;;1.70;;
4452;SDS011;2239;48.152;11.584;2022-10-31T02:59:25;3.17;;;1.97;;
4452;SDS011;2239;48.152;11.584;2022-10-31T03:15:34;1.63;;;1.10;;
4452;SDS011;2239;48.152;11.584;2022-10-31T03:18:06;2.40;;;1.47;;
4452;SDS011;2239;48.152;11.584;2022-10-31T03:20:55;1.20;;;1.03;;
4452;SDS011;2239;48.152;11.584;2022-10-31T03:23:30;2.37;;;1.10;;
4452;SDS011;2239;48.152;11.584;2022-10-31T03:25:59;1.23;;;1.13;;
4452;SDS011;2239;48.152;11.584;2022-10-31T03:28:29;2.37;;;1.50;;
4452;SDS011;2239;48.152;11.584;2022-10-31T03:30:58;6.90;;;1.80;;
4452;SDS011;2239;48.152;11.584;2022-10-31T03:33:26;1.63;;;1.17;;
4452;SDS011;2239;48.152;11.584;2022-10-31T03:35:55;2.57;;;1.47;;
4452;SDS011;2239;48.152;11.584;2022-10-31T03:38:24;4.40;;;1.87;;
4452;SDS011;2239;48.152;11.584;2022-10-31T03:40:51;1.80;;;1.23;;
4452;SDS011;2239;48.152;11.584;2022-10-31T03:43:22;1.93;;;1.43;;
4452;SDS011;2239;48.152;11.584;2022-10-31T03:45:53;3.63;;;0.90;;
4452;SDS011;2239;48.152;11.584;2022-10-31T03:48:19;3.47;;;1.33;;
4452;SDS011;2239;48.152;11.584;2022-10-31T03:53:30;4.03;;;2.20;;
4452;SDS011;2239;48.152;11.584;2022-10-31T03:56:11;2.73;;;1.73;;
4452;SDS011;2239;48.152;11.584;2022-10-31T03:58:47;3.67;;;1.47;;
4452;SDS011;2239;48.152;11.584;2022-10-31T04:01:19;4.17;;;1.37;;
4452;SDS011;2239;48.152;11.584;2022-10-31T04:03:47;1.20;;;1.10;;
4452;SDS011;2239;48.152;11.584;2022-10-31T04:06:13;2.10;;;1.20;;
4452;SDS011;2239;48.152;11.584;2022-10-31T04:08:48;2.43;;;1.30;;
4452;SDS011;2239;48.152;11.584;2022-10-31T04:11:18;4.60;;;1.33;;
4452;SDS011;2239;48.152;11.584;2022-10-31T04:13:47;3.03;;;1.43;;
4452;SDS011;2239;48.152;11.584;2022-10-31T04:16:14;1.40;;;1.30;;
4452;SDS011;2239;48.152;11.584;2022-10-31T04:18:41;5.97;;;1.67;;
4452;SDS011;2239;48.152;11.584;2022-10-31T04:21:07;2.60;;;1.50;;
4452;SDS011;2239;48.152;11.584;2022-10-31T04:23:33;6.50;;;2.20;;
4452;SDS011;2239;48.152;11.584;2022-10-31T04:26:00;2.10;;;1.27;;
4452;SDS011;2239;48.152;11.584;2022-10-31T04:28:27;2.13;;;1.13;;
4452;SDS011;2239;48.152;11.584;2022-10-31T04:30:52;3.23;;;1.47;;
4452;SDS011;2239;48.152;11.584;2022-10-31T04:33:18;4.10;;;1.10;;
4452;SDS011;2239;48.152;11.584;2022-10-31T04:35:44;5.93;;;1.97;;
4452;SDS011;2239;48.152;11.584;2022-10-31T04:38:10;2.30;;;1.27;;
4452;SDS011;2239;48.152;11.584;2022-10-31T04:40:36;2.43;;;1.13;;
4452;SDS011;2239;48.152;11.584;2022-10-31T04:43:01;2.50;;;1.50;;
4452;SDS011;2239;48.152;11.584;2022-10-31T04:45:27;2.20;;;1.23;;
4452;SDS011;2239;48.152;11.584;2022-10-31T04:47:52;2.20;;;0.90;;
4452;SDS011;2239;48.152;11.584;2022-10-31T04:50:18;2.17;;;1.40;;
4452;SDS011;2239;48.152;11.584;2022-10-31T04:52:44;4.87;;;0.97;;
4452;SDS011;2239;48.152;11.584;2022-10-31T04:55:11;1.77;;;1.17;;
4452;SDS011;2239;48.152;11.584;2022-10-31T04:57:41;3.93;;;1.30;;
4452;SDS011;2239;48.152;11.584;2022-10-31T05:00:11;2.57;;;1.20;;
4452;SDS011;2239;48.152;11.584;2022-10-31T05:02:44;2.43;;;1.00;;
4452;SDS011;2239;48.152;11.584;2022-10-31T05:05:11;1.50;;;1.10;;
4452;SDS011;2239;48.152;11.584;2022-10-31T05:07:39;6.30;;;1.33;;
4452;SDS011;2239;48.152;11.584;2022-10-31T05:10:06;2.20;;;1.23;;
4452;SDS011;2239;48.152;11.584;2022-10-31T05:12:34;2.07;;;1.40;;
4452;SDS011;2239;48.152;11.584;2022-10-31T05:15:00;4.00;;;1.67;;
4452;SDS011;2239;48.152;11.584;2022-10-31T05:17:26;3.30;;;1.57;;
4452;SDS011;2239;48.152;11.584;2022-10-31T05:19:51;1.93;;;1.33;;
4452;SDS011;2239;48.152;11.584;2022-10-31T05:22:17;2.10;;;1.47;;
4452;SDS011;2239;48.152;11.584;2022-10-31T05:24:42;1.17;;;0.87;;
4452;SDS011;2239;48.152;11.584;2022-10-31T05:27:08;3.07;;;1.50;;
4452;SDS011;2239;48.152;11.584;2022-10-31T05:29:33;1.93;;;1.20;;
4452;SDS011;2239;48.152;11.584;2022-10-31T05:31:59;4.30;;;1.67;;
4452;SDS011;2239;48.152;11.584;2022-10-31T05:34:25;1.20;;;1.00;;
4452;SDS011;2239;48.152;11.584;2022-10-31T05:36:50;4.80;;;1.60;;
4452;SDS011;2239;48.152;11.584;2022-10-31T05:39:16;6.53;;;1.10;;
4452;SDS011;2239;48.152;11.584;2022-10-31T05:41:41;3.33;;;1.10;;
4452;SDS011;2239;48.152;11.584;2022-10-31T05:44:07;4.07;;;1.43;;
4452;SDS011;2239;48.152;11.584;2022-10-31T05:46:33;4.27;;;1.80;;
4452;SDS011;2239;48.152;11.584;2022-10-31T05:48:58;3.33;;;1.10;;
4452;SDS011;2239;48.152;11.584;2022-10-31T05:51:24;3.73;;;1.23;;
4452;SDS011;2239;48.152;11.584;2022-10-31T05:53:49;3.20;;;1.57;;
4452;SDS011;2239;48.152;11.584;2022-10-31T05:56:15;2.33;;;1.20;;
4452;SDS011;2239;48.152;11.584;2022-10-31T05:58:40;2.53;;;1.33;;
4452;SDS011;2239;48.152;11.584;2022-10-31T06:01:06;1.97;;;1.10;;
4452;SDS011;2239;48.152;11.584;2022-10-31T06:03:32;10.50;;;1.43;;
4452;SDS011;2239;48.152;11.584;2022-10-31T06:05:57;3.10;;;1.47;;
4452;SDS011;2239;48.152;11.584;2022-10-31T06:08:23;2.83;;;1.53;;
4452;SDS011;2239;48.152;11.584;2022-10-31T06:10:48;3.70;;;1.40;;
4452;SDS011;2239;48.152;11.584;2022-10-31T06:13:14;5.97;;;1.37;;
4452;SDS011;2239;48.152;11.584;2022-10-31T06:15:40;2.20;;;1.17;;
4452;SDS011;2239;48.152;11.584;2022-10-31T06:18:07;2.60;;;1.30;;
4452;SDS011;2239;48.152;11.584;2022-10-31T06:20:33;2.97;;;1.43;;
4452;SDS011;2239;48.152;11.584;2022-10-31T06:22:59;3.00;;;1.20;;
4452;SDS011;2239;48.152;11.584;2022-10-31T06:25:25;1.63;;;1.10;;
4452;SDS011;2239;48.152;11.584;2022-10-31T06:27:50;4.33;;;1.60;;
4452;SDS011;2239;48.152;11.584;2022-10-31T06:30:16;1.50;;;1.17;;
4452;SDS011;2239;48.152;11.584;2022-10-31T06:32:41;1.60;;;0.90;;
4452;SDS011;2239;48.152;11.584;2022-10-31T06:35:07;2.90;;;1.50;;
4452;SDS011;2239;48.152;11.584;2022-10-31T06:37:33;2.50;;;1.17;;
4452;SDS011;2239;48.152;11.584;2022-10-31T06:40:00;3.93;;;1.83;;
4452;SDS011;2239;48.152;11.584;2022-10-31T06:42:25;4.10;;;1.47;;
4452;SDS011;2239;48.152;11.584;2022-10-31T06:44:51;2.00;;;1.30;;
4452;SDS011;2239;48.152;11.584;2022-10-31T06:47:17;1.73;;;1.30;;
4452;SDS011;2239;48.152;11.584;2022-10-31T06:49:42;5.07;;;1.93;;
4452;SDS011;2239;48.152;11.584;2022-10-31T06:52:08;1.83;;;1.40;;
4452;SDS011;2239;48.152;11.584;2022-10-31T06:54:33;4.67;;;1.70;;
4452;SDS011;2239;48.152;11.584;2022-10-31T06:56:59;2.97;;;1.53;;
4452;SDS011;2239;48.152;11.584;2022-10-31T06:59:24;2.07;;;1.37;;
4452;SDS011;2239;48.152;11.584;2022-10-31T07:01:50;1.93;;;1.00;;
4452;SDS011;2239;48.152;11.584;2022-10-31T07:04:16;3.53;;;1.80;;
4452;SDS011;2239;48.152;11.584;2022-10-31T07:06:41;3.00;;;1.50;;
4452;SDS011;2239;48.152;11.584;2022-10-31T07:09:07;1.70;;;1.03;;
4452;SDS011;2239;48.152;11.584;2022-10-31T07:11:32;1.73;;;1.63;;
4452;SDS011;2239;48.152;11.584;2022-10-31T07:13:58;3.90;;;1.20;;
4452;SDS011;2239;48.152;11.584;2022-10-31T07:16:24;3.07;;;1.37;;
4452;SDS011;2239;48.152;11.584;2022-10-31T07:18:49;2.20;;;1.27;;
4452;SDS011;2239;48.152;11.584;2022-10-31T07:21:15;1.80;;;1.63;;
4452;SDS011;2239;48.152;11.584;2022-10-31T07:23:41;3.00;;;1.57;;
4452;SDS011;2239;48.152;11.584;2022-10-31T07:26:07;3.43;;;1.23;;
4452;SDS011;2239;48.152;11.584;2022-10-31T07:28:34;2.50;;;1.57;;
4452;SDS011;2239;48.152;11.584;2022-10-31T07:31:00;4.10;;;1.70;;
4452;SDS011;2239;48.152;11.584;2022-10-31T07:33:25;2.97;;;2.20;;
4452;SDS011;2239;48.152;11.584;2022-10-31T07:35:51;4.73;;;1.60;;
4452;SDS011;2239;48.152;11.584;2022-10-31T07:38:17;2.67;;;1.23;;
4452;SDS011;2239;48.152;11.584;2022-10-31T07:40:43;1.87;;;1.27;;
4452;SDS011;2239;48.152;11.584;2022-10-31T07:43:12;3.90;;;1.40;;
4452;SDS011;2239;48.152;11.584;2022-10-31T07:45:37;5.30;;;1.77;;
4452;SDS011;2239;48.152;11.584;2022-10-31T07:48:03;9.20;;;1.50;;
4452;SDS011;2239;48.152;11.584;2022-10-31T07:50:30;2.73;;;1.20;;
4452;SDS011;2239;48.152;11.584;2022-10-31T07:52:59;7.57;;;3.77;;
4452;SDS011;2239;48.152;11.584;2022-10-31T07:55:35;3.30;;;1.50;;
4452;SDS011;2239;48.152;11.584;2022-10-31T07:58:03;1.70;;;1.23;;
4452;SDS011;2239;48.152;11.584;2022-10-31T08:00:33;2.70;;;1.47;;
4452;SDS011;2239;48.152;11.584;2022-10-31T08:03:00;5.73;;;1.97;;
4452;SDS011;2239;48.152;11.584;2022-10-31T08:05:30;5.70;;;1.97;;
4452;SDS011;2239;48.152;11.584;2022-10-31T08:07:56;4.50;;;1.60;;
4452;SDS011;2239;48.152;11.584;2022-10-31T08:10:25;3.30;;;1.93;;
4452;SDS011;2239;48.152;11.584;2022-10-31T08:12:56;2.50;;;1.80;;
4452;SDS011;2239;48.152;11.584;2022-10-31T08:15:21;3.47;;;1.87;;
4452;SDS011;2239;48.152;11.584;2022-10-31T08:17:47;2.70;;;1.70;;
4452;SDS011;2239;48.152;11.584;2022-10-31T08:20:12;2.40;;;1.63;;
4452;SDS011;2239;48.152;11.584;2022-10-31T08:22:38;4.90;;;2.27;;
4452;SDS011;2239;48.152;11.584;2022-10-31T08:25:04;3.47;;;2.03;;
4452;SDS011;2239;48.152;11.584;2022-10-31T08:27:29;3.20;;;2.30;;
4452;SDS011;2239;48.152;11.584;2022-10-31T08:29:55;3.10;;;2.00;;
4452;SDS011;2239;48.152;11.584;2022-10-31T08:32:21;4.57;;;2.10;;
4452;SDS011;2239;48.152;11.584;2022-10-31T08:34:46;4.80;;;2.37;;
4452;SDS011;2239;48.152;11.584;2022-10-31T08:37:12;4.20;;;2.27;;
4452;SDS011;2239;48.152;11.584;2022-10-31T08:39:37;6.80;;;2.20;;
4452;SDS011;2239;48.152;11.584;2022-10-31T08:42:03;6.27;;;2.70;;
4452;SDS011;2239;48.152;11.584;2022-10-31T08:44:29;3.97;;;2.23;;
4452;SDS011;2239;48.152;11.584;2022-10-31T08:46:54;7.00;;;2.30;;
4452;SDS011;2239;48.152;11.584;2022-10-31T08:49:20;5.37;;;2.10;;
4452;SDS011;2239;48.152;11.584;2022-10-31T08:51:48;4.17;;;2.33;;
4452;SDS011;2239;48.152;11.584;2022-10-31T08:54:14;6.90;;;2.17;;
4452;SDS011;2239;48.152;11.584;2022-10-31T08:56:40;4.57;;;2.00;;
4452;SDS011;2239;48.152;11.584;2022-10-31T08:59:06;4.50;;;2.60;;
4452;SDS011;2239;48.152;11.584;2022-10-31T09:01:31;6.63;;;2.40;;
4452;SDS011;2239;48.152;11.584;2022-10-31T09:03:57;3.40;;;1.97;;
4452;SDS011;2239;48.152;11.584;2022-10-31T09:06:22;5.90;;;2.23;;
4452;SDS011;2239;48.152;11.584;2022-10-31T09:08:48;4.67;;;2.00;;
4452;SDS011;2239;48.152;11.584;2022-10-31T09:11:13;3.20;;;2.17;;
4452;SDS011;2239;48.152;11.584;2022-10-31T09:13:39;3.07;;;2.00;;
4452;SDS011;2239;48.152;11.584;2022-10-31T09:16:05;3.27;;;2.07;;
4452;SDS011;2239;48.152;11.584;2022-10-31T09:18:30;4.47;;;2.33;;
4452;SDS011;2239;48.152;11.584;2022-10-31T09:20:57;4.30;;;1.83;;
4452;SDS011;2239;48.152;11.584;2022-10-31T09:23:24;5.00;;;2.50;;
4452;SDS011;2239;48.152;11.584;2022-10-31T09:25:50;4.57;;;2.30;;
4452;SDS011;2239;48.152;11.584;2022-10-31T09:28:18;3.37;;;2.10;;
4452;SDS011;2239;48.152;11.584;2022-10-31T09:30:46;4.90;;;2.10;;
4452;SDS011;2239;48.152;11.584;2022-10-31T09:33:13;3.90;;;2.00;;
4452;SDS011;2239;48.152;11.584;2022-10-31T09:35:40;4.90;;;2.00;;
4452;SDS011;2239;48.152;11.584;2022-10-31T09:38:07;2.57;;;1.50;;
4452;SDS011;2239;48.152;11.584;2022-10-31T09:40:39;3.33;;;1.90;;
4452;SDS011;2239;48.152;11.584;2022-10-31T09:43:20;2.30;;;1.67;;
4452;SDS011;2239;48.152;11.584;2022-10-31T09:45:53;2.13;;;1.70;;
4452;SDS011;2239;48.152;11.584;2022-10-31T09:51:00;2.83;;;1.50;;
4452;SDS011;2239;48.152;11.584;2022-10-31T09:56:08;2.50;;;1.70;;
4452;SDS011;2239;48.152;11.584;2022-10-31T09:58:48;2.23;;;1.30;;
4452;SDS011;2239;48.152;11.584;2022-10-31T10:02:04;3.40;;;1.50;;
4452;SDS011;2239;48.152;11.584;2022-10-31T10:04:19;2.57;;;1.57;;
4452;SDS011;2239;48.152;11.584;2022-10-31T10:07:14;1.43;;;1.20;;
4452;SDS011;2239;48.152;11.584;2022-10-31T10:09:57;2.13;;;1.30;;
4452;SDS011;2239;48.152;11.584;2022-10-31T10:17:51;4.73;;;1.63;;
4452;SDS011;2239;48.152;11.584;2022-10-31T10:26:21;1.27;;;0.93;;
4452;SDS011;2239;48.152;11.584;2022-10-31T10:31:27;1.90;;;1.37;;
4452;SDS011;2239;48.152;11.584;2022-10-31T10:36:45;1.90;;;1.17;;
4452;SDS011;2239;48.152;11.584;2022-10-31T10:39:44;1.40;;;0.93;;
4452;SDS011;2239;48.152;11.584;2022-10-31T10:42:13;1.53;;;1.30;;
4452;SDS011;2239;48.152;11.584;2022-10-31T10:44:59;1.67;;;1.00;;
4452;SDS011;2239;48.152;11.584;2022-10-31T10:47:59;4.47;;;1.20;;
4452;SDS011;2239;48.152;11.584;2022-10-31T10:50:38;1.53;;;1.03;;
4452;SDS011;2239;48.152;11.584;2022-10-31T10:53:24;1.23;;;1.10;;
4452;SDS011;2239;48.152;11.584;2022-10-31T10:56:03;1.03;;;0.90;;
4452;SDS011;2239;48.152;11.584;2022-10-31T10:58:43;1.80;;;1.10;;
4452;SDS011;2239;48.152;11.584;2022-10-31T11:01:11;3.43;;;1.30;;
4452;SDS011;2239;48.152;11.584;2022-10-31T11:03:37;2.57;;;1.10;;
4452;SDS011;2239;48.152;11.584;2022-10-31T11:06:04;2.57;;;1.30;;
4452;SDS011;2239;48.152;11.584;2022-10-31T11:08:40;1.93;;;1.17;;
4452;SDS011;2239;48.152;11.584;2022-10-31T11:11:08;2.10;;;1.00;;
4452;SDS011;2239;48.152;11.584;2022-10-31T11:13:42;1.60;;;0.90;;
4452;SDS011;2239;48.152;11.584;2022-10-31T11:16:11;1.53;;;1.07;;
4452;SDS011;2239;48.152;11.584;2022-10-31T11:18:44;1.50;;;1.00;;
4452;SDS011;2239;48.152;11.584;2022-10-31T11:21:20;1.37;;;1.03;;
4452;SDS011;2239;48.152;11.584;2022-10-31T11:23:48;1.83;;;1.10;;
4452;SDS011;2239;48.152;11.584;2022-10-31T11:26:20;2.57;;;0.90;;
4452;SDS011;2239;48.152;11.584;2022-10-31T11:28:56;4.00;;;1.27;;
4452;SDS011;2239;48.152;11.584;2022-10-31T11:31:22;0.83;;;0.70;;
4452;SDS011;2239;48.152;11.584;2022-10-31T11:33:50;3.53;;;1.57;;
4452;SDS011;2239;48.152;11.584;2022-10-31T11:36:35;2.10;;;1.40;;
4452;SDS011;2239;48.152;11.584;2022-10-31T11:39:04;6.50;;;1.43;;
4452;SDS011;2239;48.152;11.584;2022-10-31T11:41:37;1.50;;;1.20;;
4452;SDS011;2239;48.152;11.584;2022-10-31T11:44:04;1.90;;;1.30;;
4452;SDS011;2239;48.152;11.584;2022-10-31T11:46:51;0.90;;;0.90;;
4452;SDS011;2239;48.152;11.584;2022-10-31T11:49:25;1.10;;;0.90;;
4452;SDS011;2239;48.152;11.584;2022-10-31T11:52:01;1.10;;;0.83;;
4452;SDS011;2239;48.152;11.584;2022-10-31T11:54:32;2.60;;;1.10;;
4452;SDS011;2239;48.152;11.584;2022-10-31T11:57:05;1.20;;;0.83;;
4452;SDS011;2239;48.152;11.584;2022-10-31T11:59:50;2.93;;;1.33;;
4452;SDS011;2239;48.152;11.584;2022-10-31T12:02:18;0.90;;;0.73;;
4452;SDS011;2239;48.152;11.584;2022-10-31T12:04:46;2.77;;;1.10;;
4452;SDS011;2239;48.152;11.584;2022-10-31T12:07:33;1.77;;;1.20;;
4452;SDS011;2239;48.152;11.584;2022-10-31T12:09:58;2.70;;;1.60;;
4452;SDS011;2239;48.152;11.584;2022-10-31T12:12:31;3.33;;;1.50;;
4452;SDS011;2239;48.152;11.584;2022-10-31T12:17:45;3.07;;;1.30;;
4452;SDS011;2239;48.152;11.584;2022-10-31T12:20:20;2.40;;;1.47;;
4452;SDS011;2239;48.152;11.584;2022-10-31T12:23:09;2.60;;;1.50;;
4452;SDS011;2239;48.152;11.584;2022-10-31T12:36:31;3.73;;;1.20;;
4452;SDS011;2239;48.152;11.584;2022-10-31T12:44:44;1.00;;;0.90;;
4452;SDS011;2239;48.152;11.584;2022-10-31T12:47:47;3.03;;;1.63;;
4452;SDS011;2239;48.152;11.584;2022-10-31T12:50:27;2.20;;;1.20;;
4452;SDS011;2239;48.152;11.584;2022-10-31T12:53:07;4.07;;;1.70;;
4452;SDS011;2239;48.152;11.584;2022-10-31T12:58:37;2.07;;;1.40;;
4452;SDS011;2239;48.152;11.584;2022-10-31T13:01:12;5.63;;;1.50;;
4452;SDS011;2239;48.152;11.584;2022-10-31T13:07:55;2.00;;;1.20;;
4452;SDS011;2239;48.152;11.584;2022-10-31T13:13:05;1.57;;;0.97;;
4452;SDS011;2239;48.152;11.584;2022-10-31T13:15:51;1.23;;;0.93;;
4452;SDS011;2239;48.152;11.584;2022-10-31T13:18:44;1.57;;;1.17;;
4452;SDS011;2239;48.152;11.584;2022-10-31T13:21:12;3.53;;;1.40;;
4452;SDS011;2239;48.152;11.584;2022-10-31T13:23:45;1.30;;;1.20;;
4452;SDS011;2239;48.152;11.584;2022-10-31T13:26:18;3.40;;;1.43;;
4452;SDS011;2239;48.152;11.584;2022-10-31T13:31:47;8.13;;;1.30;;
4452;SDS011;2239;48.152;11.584;2022-10-31T13:34:22;1.90;;;1.20;;
4452;SDS011;2239;48.152;11.584;2022-10-31T13:39:43;3.13;;;1.13;;
4452;SDS011;2239;48.152;11.584;2022-10-31T13:44:48;1.83;;;1.30;;
4452;SDS011;2239;48.152;11.584;2022-10-31T13:47:20;2.10;;;1.30;;
4452;SDS011;2239;48.152;11.584;2022-10-31T13:49:49;2.47;;;1.40;;
4452;SDS011;2239;48.152;11.584;2022-10-31T13:52:21;5.53;;;1.23;;
4452;SDS011;2239;48.152;11.584;2022-10-31T13:54:49;4.80;;;2.03;;
4452;SDS011;2239;48.152;11.584;2022-10-31T14:02:44;3.87;;;1.47;;
4452;SDS011;2239;48.152;11.584;2022-10-31T14:05:21;4.40;;;1.77;;
4452;SDS011;2239;48.152;11.584;2022-10-31T14:07:55;3.53;;;1.40;;
4452;SDS011;2239;48.152;11.584;2022-10-31T14:10:32;2.80;;;1.47;;
4452;SDS011;2239;48.152;11.584;2022-10-31T14:13:04;9.03;;;1.80;;
4452;SDS011;2239;48.152;11.584;2022-10-31T14:15:41;2.20;;;1.20;;
4452;SDS011;2239;48.152;11.584;2022-10-31T14:18:23;1.90;;;1.43;;
4452;SDS011;2239;48.152;11.584;2022-10-31T14:20:53;7.10;;;1.80;;
4452;SDS011;2239;48.152;11.584;2022-10-31T14:28:48;4.70;;;1.50;;
4452;SDS011;2239;48.152;11.584;2022-10-31T14:45:21;4.73;;;2.00;;
4452;SDS011;2239;48.152;11.584;2022-10-31T14:51:25;8.20;;;2.50;;
4452;SDS011;2239;48.152;11.584;2022-10-31T14:53:58;6.70;;;1.50;;
4452;SDS011;2239;48.152;11.584;2022-10-31T14:56:26;3.57;;;1.90;;
4452;SDS011;2239;48.152;11.584;2022-10-31T14:58:55;3.87;;;1.70;;
4452;SDS011;2239;48.152;11.584;2022-10-31T15:01:27;3.07;;;2.00;;
4452;SDS011;2239;48.152;11.584;2022-10-31T15:03:53;2.57;;;2.07;;
4452;SDS011;2239;48.152;11.584;2022-10-31T15:06:23;2.83;;;1.83;;
4452;SDS011;2239;48.152;11.584;2022-10-31T15:08:51;3.90;;;2.27;;
4452;SDS011;2239;48.152;11.584;2022-10-31T15:11:23;3.97;;;2.40;;
4452;SDS011;2239;48.152;11.584;2022-10-31T15:13:54;3.50;;;2.10;;
4452;SDS011;2239;48.152;11.584;2022-10-31T15:16:22;5.80;;;2.63;;
4452;SDS011;2239;48.152;11.584;2022-10-31T15:18:54;3.73;;;2.20;;
4452;SDS011;2239;48.152;11.584;2022-10-31T15:21:23;7.43;;;3.07;;
4452;SDS011;2239;48.152;11.584;2022-10-31T15:23:51;4.73;;;2.40;;
4452;SDS011;2239;48.152;11.584;2022-10-31T15:26:19;6.70;;;3.10;;
4452;SDS011;2239;48.152;11.584;2022-10-31T15:28:57;7.03;;;2.80;;
4452;SDS011;2239;48.152;11.584;2022-10-31T15:31:27;5.47;;;2.73;;
4452;SDS011;2239;48.152;11.584;2022-10-31T15:33:53;6.37;;;3.10;;
4452;SDS011;2239;48.152;11.584;2022-10-31T15:36:25;4.93;;;2.53;;
4452;SDS011;2239;48.152;11.584;2022-10-31T15:38:51;6.27;;;2.70;;
4452;SDS011;2239;48.152;11.584;2022-10-31T15:41:22;7.60;;;3.37;;
4452;SDS011;2239;48.152;11.584;2022-10-31T15:43:48;5.17;;;2.47;;
4452;SDS011;2239;48.152;11.584;2022-10-31T15:46:14;7.57;;;3.03;;
4452;SDS011;2239;48.152;11.584;2022-10-31T15:48:43;5.53;;;2.70;;
4452;SDS011;2239;48.152;11.584;2022-10-31T15:51:11;4.47;;;2.70;;
4452;SDS011;2239;48.152;11.584;2022-10-31T15:53:41;4.40;;;2.30;;
4452;SDS011;2239;48.152;11.584;2022-10-31T15:56:18;6.90;;;3.20;;
4452;SDS011;2239;48.152;11.584;2022-10-31T15:58:49;4.30;;;2.20;;
4452;SDS011;2239;48.152;11.584;2022-10-31T16:01:27;9.27;;;3.17;;
4452;SDS011;2239;48.152;11.584;2022-10-31T16:03:59;4.40;;;2.27;;
4452;SDS011;2239;48.152;11.584;2022-10-31T16:06:45;7.50;;;2.90;;
4452;SDS011;2239;48.152;11.584;2022-10-31T16:09:47;6.17;;;3.03;;
4452;SDS011;2239;48.152;11.584;2022-10-31T16:12:20;10.33;;;4.23;;
4452;SDS011;2239;48.152;11.584;2022-10-31T16:14:47;6.87;;;3.20;;
4452;SDS011;2239;48.152;11.584;2022-10-31T16:17:13;6.83;;;3.10;;
4452;SDS011;2239;48.152;11.584;2022-10-31T16:19:51;6.60;;;3.13;;
4452;SDS011;2239;48.152;11.584;2022-10-31T16:22:22;5.80;;;3.07;;
4452;SDS011;2239;48.152;11.584;2022-10-31T16:25:04;6.60;;;2.90;;
4452;SDS011;2239;48.152;11.584;2022-10-31T16:27:36;7.07;;;2.67;;
4452;SDS011;2239;48.152;11.584;2022-10-31T16:30:26;5.10;;;2.83;;
4452;SDS011;2239;48.152;11.584;2022-10-31T16:33:00;7.20;;;3.27;;
4452;SDS011;2239;48.152;11.584;2022-10-31T16:35:27;6.60;;;3.27;;
4452;SDS011;2239;48.152;11.584;2022-10-31T16:37:58;5.83;;;2.90;;
4452;SDS011;2239;48.152;11.584;2022-10-31T16:40:23;4.70;;;2.27;;
4452;SDS011;2239;48.152;11.584;2022-10-31T16:42:49;6.20;;;2.73;;
4452;SDS011;2239;48.152;11.584;2022-10-31T16:45:17;5.30;;;2.77;;
4452;SDS011;2239;48.152;11.584;2022-10-31T16:47:45;5.73;;;3.37;;
4452;SDS011;2239;48.152;11.584;2022-10-31T16:50:15;3.57;;;2.27;;
4452;SDS011;2239;48.152;11.584;2022-10-31T16:52:49;5.80;;;2.83;;
4452;SDS011;2239;48.152;11.584;2022-10-31T16:55:15;4.27;;;2.43;;
4452;SDS011;2239;48.152;11.584;2022-10-31T16:57:44;3.07;;;2.40;;
4452;SDS011;2239;48.152;11.584;2022-10-31T17:00:26;4.90;;;2.33;;
4452;SDS011;2239;48.152;11.584;2022-10-31T17:02:53;5.57;;;2.77;;
4452;SDS011;2239;48.152;11.584;2022-10-31T17:05:21;4.63;;;2.60;;
4452;SDS011;2239;48.152;11.584;2022-10-31T17:07:56;7.47;;;3.23;;
4452;SDS011;2239;48.152;11.584;2022-10-31T17:10:21;6.43;;;2.70;;
4452;SDS011;2239;48.152;11.584;2022-10-31T17:12:48;4.57;;;2.80;;
4452;SDS011;2239;48.152;11.584;2022-10-31T17:15:18;5.30;;;2.40;;
4452;SDS011;2239;48.152;11.584;2022-10-31T17:17:49;5.67;;;2.37;;